createdAt,value
2017-10-05T18:01:04.694Z,77.15
2017-10-05T18:04:43.948Z,78.23
2017-10-05T18:07:11.902Z,78.12
2017-10-05T18:09:39.974Z,77.74
2017-10-05T18:12:07.753Z,77.61
2017-10-05T18:14:37.306Z,77.32
2017-10-05T18:17:05.315Z,77.31
2017-10-05T18:19:33.081Z,77.44
2017-10-05T18:22:01.048Z,76.78
2017-10-05T18:24:28.912Z,76.66
2017-10-05T18:26:57.393Z,76.30
2017-10-05T18:29:26.557Z,76.46
2017-10-05T18:31:54.458Z,75.76
2017-10-05T18:34:22.324Z,75.51
2017-10-05T18:36:51.058Z,75.39
2017-10-05T18:39:18.888Z,74.32
2017-10-05T18:41:46.843Z,73.97
2017-10-05T18:44:15.541Z,73.99
2017-10-05T18:46:43.395Z,74.00
2017-10-05T18:49:11.262Z,73.63
2017-10-05T18:51:39.449Z,73.34
2017-10-05T18:54:07.703Z,72.98
2017-10-05T18:56:35.791Z,72.95
2017-10-05T18:59:03.655Z,73.21
2017-10-05T19:01:31.425Z,73.16
2017-10-05T19:04:00.541Z,73.37
2017-10-05T19:06:30.144Z,73.31
2017-10-05T19:09:00.575Z,73.51
2017-10-05T19:11:31.599Z,73.22
2017-10-05T19:14:01.524Z,73.52
2017-10-05T19:16:29.485Z,72.96
2017-10-05T19:18:57.229Z,73.14
2017-10-05T19:21:25.102Z,72.90
2017-10-05T19:23:53.069Z,72.25
2017-10-05T19:26:21.033Z,72.54
2017-10-05T19:28:49.106Z,72.44
2017-10-05T19:31:17.079Z,72.69
2017-10-05T19:33:45.861Z,72.38
2017-10-05T19:36:13.830Z,73.07
2017-10-05T19:38:41.975Z,73.13
2017-10-05T19:41:10.295Z,73.58
2017-10-05T19:43:38.228Z,73.04
2017-10-05T19:46:06.030Z,73.63
2017-10-05T19:48:33.980Z,74.26
2017-10-05T19:51:01.644Z,74.44
2017-10-05T19:53:29.509Z,74.45
2017-10-05T19:55:57.990Z,74.76
2017-10-05T19:58:25.739Z,74.85
2017-10-05T20:00:53.518Z,74.75
2017-10-05T20:03:21.282Z,74.90
2017-10-05T20:05:48.946Z,74.73
2017-10-05T20:08:16.617Z,75.00
2017-10-05T20:10:44.573Z,75.35
2017-10-05T20:13:12.286Z,75.31
2017-10-05T20:15:42.538Z,75.57
2017-10-05T20:18:12.984Z,75.55
2017-10-05T20:20:41.568Z,75.12
2017-10-05T20:23:17.524Z,75.68
2017-10-05T20:25:48.783Z,75.04
2017-10-05T20:28:18.601Z,74.91
2017-10-05T20:33:52.509Z,75.20
2017-10-05T20:36:20.168Z,75.00
2017-10-05T20:38:48.099Z,75.26
2017-10-05T20:41:15.994Z,75.38
2017-10-05T20:43:43.564Z,75.42
2017-10-05T20:46:11.152Z,75.39
2017-10-05T20:48:38.790Z,74.94
2017-10-05T20:51:06.449Z,75.57
2017-10-05T20:53:34.005Z,75.78
2017-10-05T20:56:01.772Z,75.58
2017-10-05T20:58:29.344Z,75.67
2017-10-05T21:00:56.959Z,75.87
2017-10-05T21:03:25.370Z,75.60
2017-10-05T21:05:52.927Z,75.56
2017-10-05T21:08:20.486Z,75.57
2017-10-05T21:10:48.296Z,76.09
2017-10-05T21:13:15.847Z,75.87
2017-10-05T21:15:43.380Z,76.42
2017-10-05T21:18:10.939Z,75.63
2017-10-05T21:20:38.488Z,75.72
2017-10-05T21:23:06.019Z,76.37
2017-10-05T21:25:33.914Z,77.07
2017-10-05T21:28:01.472Z,77.13
2017-10-05T21:30:29.054Z,77.04
2017-10-05T21:32:56.620Z,76.59
2017-10-05T21:35:24.253Z,76.41
2017-10-05T21:37:51.792Z,76.61
2017-10-05T21:40:19.367Z,76.85
2017-10-05T21:42:46.928Z,76.90
2017-10-05T21:45:14.448Z,77.02
2017-10-05T21:47:42.159Z,77.27
2017-10-05T21:50:09.709Z,77.00
2017-10-05T21:52:37.272Z,77.24
2017-10-05T21:55:05.017Z,77.34
2017-10-05T21:57:32.566Z,77.58
2017-10-05T22:00:00.111Z,77.10
2017-10-05T22:02:27.711Z,77.82
2017-10-05T22:04:55.268Z,77.42
2017-10-05T22:07:22.827Z,77.55
2017-10-05T22:09:50.489Z,77.35
2017-10-05T22:12:18.049Z,77.32
2017-10-05T22:14:45.579Z,77.64
2017-10-05T22:17:13.268Z,77.39
2017-10-05T22:19:40.828Z,77.42
2017-10-05T22:22:08.387Z,77.30
2017-10-05T22:24:36.354Z,78.69
2017-10-05T22:27:03.915Z,78.69
2017-10-05T22:29:31.498Z,78.54
2017-10-05T22:31:59.084Z,79.16
2017-10-05T22:34:27.132Z,79.66
2017-10-05T22:36:54.663Z,79.56
2017-10-05T22:39:22.516Z,79.66
2017-10-05T22:41:50.040Z,79.31
2017-10-05T22:44:17.572Z,79.25
2017-10-05T22:46:45.295Z,79.22
2017-10-05T22:49:12.867Z,79.31
2017-10-05T22:51:40.427Z,78.41
2017-10-05T22:54:08.299Z,78.10
2017-10-05T22:56:36.080Z,78.34
2017-10-05T22:59:03.616Z,78.27
2017-10-05T23:01:31.181Z,78.13
2017-10-05T23:03:58.735Z,78.25
2017-10-05T23:06:26.329Z,77.26
2017-10-05T23:08:53.955Z,77.17
2017-10-05T23:11:21.530Z,77.10
2017-10-05T23:13:49.060Z,76.34
2017-10-05T23:16:16.773Z,76.81
2017-10-05T23:18:44.300Z,75.94
2017-10-05T23:21:11.860Z,76.64
2017-10-05T23:23:39.752Z,75.42
2017-10-05T23:26:07.279Z,75.40
2017-10-05T23:28:34.838Z,75.48
2017-10-05T23:31:02.447Z,75.30
2017-10-05T23:33:30.057Z,75.05
2017-10-05T23:35:57.618Z,74.42
2017-10-05T23:38:25.381Z,74.42
2017-10-05T23:40:52.904Z,74.97
2017-10-05T23:43:20.440Z,74.83
2017-10-05T23:45:48.398Z,74.89
2017-10-05T23:48:16.076Z,74.67
2017-10-05T23:50:43.608Z,75.41
2017-10-05T23:53:11.564Z,75.39
2017-10-05T23:55:39.096Z,75.60
2017-10-05T23:58:06.618Z,75.29
